Time;durP1;ratioP1;P1;durP2;ratioP2;P2;SDS_P1;SDS_P2;PMS_P1;PMS_P2;Temp;Humidity;BMP_temperature;BMP_pressure;BME280_temperature;BME280_humidity;BME280_pressure;Samples;Min_cycle;Max_cycle;Signal;HPM_P1;HPM_P2
2023/09/12 00:00:27;;;;;;;26.52;23.60;;;19.00;99.90;;;;;;2089602;28;20033;-70
2023/09/12 00:01:32;;;;;;;28.30;24.60;;;19.00;99.90;;;;;;2092635;28;20021;-71
2023/09/12 00:02:32;;;;;;;26.75;23.85;;;19.00;99.90;;;;;;2094458;28;20036;-71
2023/09/12 00:03:34;;;;;;;28.48;24.00;;;19.00;99.90;;;;;;2094562;28;20032;-71
2023/09/12 00:04:34;;;;;;;25.63;23.02;;;19.00;99.90;;;;;;2090045;28;20467;-71
2023/09/12 00:05:35;;;;;;;27.85;23.90;;;19.00;99.90;;;;;;2089953;28;20031;-71
2023/09/12 00:06:35;;;;;;;26.27;23.15;;;19.00;99.90;;;;;;2084491;28;20029;-70
2023/09/12 00:07:37;;;;;;;26.13;23.25;;;19.00;99.90;;;;;;2090825;28;20479;-70
2023/09/12 00:08:37;;;;;;;27.52;23.77;;;19.00;99.90;;;;;;2090119;28;20035;-70
2023/09/12 00:09:38;;;;;;;26.27;23.48;;;19.00;99.90;;;;;;2090592;28;20017;-70
2023/09/12 00:10:38;;;;;;;28.08;23.17;;;19.00;99.90;;;;;;2091794;28;20025;-70
2023/09/12 00:11:39;;;;;;;26.63;23.83;;;19.00;99.90;;;;;;2093887;28;20107;-70
2023/09/12 00:12:40;;;;;;;26.65;23.75;;;18.90;99.90;;;;;;2087846;28;20536;-71
2023/09/12 00:13:41;;;;;;;27.73;23.38;;;19.00;99.90;;;;;;2092363;28;20066;-70
2023/09/12 00:14:42;;;;;;;26.73;23.67;;;18.90;99.90;;;;;;2094707;28;20024;-70
2023/09/12 00:15:42;;;;;;;27.65;24.17;;;18.90;99.90;;;;;;2089658;28;20116;-70
2023/09/12 00:16:43;;;;;;;26.42;23.63;;;18.90;99.90;;;;;;2086477;28;20032;-70
2023/09/12 00:17:44;;;;;;;27.27;24.08;;;18.90;99.90;;;;;;2085949;28;20025;-70
2023/09/12 00:18:44;;;;;;;26.35;22.80;;;18.90;99.90;;;;;;2091128;28;20072;-71
2023/09/12 00:19:45;;;;;;;27.33;23.35;;;18.90;99.90;;;;;;2094962;28;20115;-70
2023/09/12 00:20:46;;;;;;;27.02;23.25;;;18.90;99.90;;;;;;2083322;28;20036;-70
2023/09/12 00:21:46;;;;;;;27.27;23.17;;;18.90;99.90;;;;;;2091433;28;20054;-70
2023/09/12 00:22:47;;;;;;;28.52;23.73;;;18.80;99.90;;;;;;2093877;28;20024;-69
2023/09/12 00:23:48;;;;;;;27.17;24.25;;;18.80;99.90;;;;;;2082427;28;20558;-72
2023/09/12 00:24:49;;;;;;;27.33;24.30;;;18.80;99.90;;;;;;2091001;28;20120;-70
2023/09/12 00:25:51;;;;;;;26.90;23.95;;;18.80;99.90;;;;;;2094438;28;20039;-70
2023/09/12 00:26:52;;;;;;;26.08;23.02;;;18.80;99.90;;;;;;2084993;28;20560;-71
2023/09/12 00:27:52;;;;;;;26.13;23.45;;;18.80;99.90;;;;;;2085620;28;20126;-70
2023/09/12 00:28:53;;;;;;;26.13;23.33;;;18.80;99.90;;;;;;2086326;28;20511;-71
2023/09/12 00:29:54;;;;;;;26.90;24.17;;;18.80;99.90;;;;;;2075820;28;20259;-70
2023/09/12 00:30:55;;;;;;;27.00;24.10;;;18.80;99.90;;;;;;2088224;28;20033;-70
2023/09/12 00:31:55;;;;;;;27.50;23.35;;;18.70;99.90;;;;;;2097519;28;20038;-71
2023/09/12 00:32:56;;;;;;;26.55;23.35;;;18.70;99.90;;;;;;2091871;28;20025;-70
2023/09/12 00:33:57;;;;;;;26.40;23.60;;;18.70;99.90;;;;;;2090220;28;20764;-70
2023/09/12 00:34:57;;;;;;;27.27;23.80;;;18.70;99.90;;;;;;2086023;28;20560;-71
2023/09/12 00:35:58;;;;;;;27.48;24.27;;;18.70;99.90;;;;;;2091946;28;20035;-70
2023/09/12 00:36:59;;;;;;;26.92;23.27;;;18.70;99.90;;;;;;2093368;28;20100;-70
2023/09/12 00:38:00;;;;;;;26.50;23.73;;;18.70;99.90;;;;;;2089010;28;20048;-70
2023/09/12 00:39:01;;;;;;;29.88;24.63;;;18.70;99.90;;;;;;2091404;28;20039;-70
2023/09/12 00:40:02;;;;;;;28.08;24.25;;;18.80;99.90;;;;;;2088570;28;20040;-70
2023/09/12 00:41:03;;;;;;;26.98;24.08;;;18.70;99.90;;;;;;2089638;28;20025;-70
2023/09/12 00:42:07;;;;;;;29.55;24.25;;;18.70;99.90;;;;;;2081056;28;20668;-71
2023/09/12 00:43:08;;;;;;;26.83;23.83;;;18.70;99.90;;;;;;2091372;28;20073;-70
2023/09/12 00:44:10;;;;;;;28.92;24.70;;;18.70;99.90;;;;;;2093217;28;20024;-71
2023/09/12 00:45:11;;;;;;;28.00;24.67;;;18.70;99.90;;;;;;2087318;28;20029;-70
2023/09/12 00:46:18;;;;;;;27.30;24.30;;;18.70;99.90;;;;;;2087601;28;20090;-72
2023/09/12 00:47:21;;;;;;;27.48;24.48;;;18.70;99.90;;;;;;2082811;28;20074;-70
2023/09/12 00:48:23;;;;;;;28.20;25.20;;;18.70;99.90;;;;;;2086983;28;20013;-70
2023/09/12 00:49:26;;;;;;;27.83;24.85;;;18.70;99.90;;;;;;2092260;28;20035;-70
2023/09/12 00:50:27;;;;;;;27.60;24.75;;;18.70;99.90;;;;;;2091391;28;20031;-70
2023/09/12 00:51:28;;;;;;;28.17;25.00;;;18.70;99.90;;;;;;2082939;28;20088;-70
2023/09/12 00:52:30;;;;;;;28.17;24.70;;;18.70;99.90;;;;;;2084177;28;20659;-70
2023/09/12 00:53:31;;;;;;;27.48;24.55;;;18.60;99.90;;;;;;2082199;28;20075;-70
2023/09/12 00:54:32;;;;;;;26.25;23.50;;;18.60;99.90;;;;;;2084624;28;20286;-71
2023/09/12 00:55:34;;;;;;;26.35;23.58;;;18.60;99.90;;;;;;2084969;28;20028;-70
2023/09/12 00:56:35;;;;;;;28.13;25.13;;;18.60;99.90;;;;;;2082658;28;20569;-70
2023/09/12 00:57:36;;;;;;;27.88;24.98;;;18.60;99.90;;;;;;2075370;28;20034;-70
2023/09/12 00:58:37;;;;;;;28.08;25.05;;;18.60;99.90;;;;;;2071011;28;20052;-70
2023/09/12 00:59:37;;;;;;;27.58;24.65;;;18.50;99.90;;;;;;2089268;28;20016;-70
2023/09/12 01:00:39;;;;;;;28.95;25.15;;;18.50;99.90;;;;;;2093990;28;20514;-70
2023/09/12 01:01:40;;;;;;;28.20;24.35;;;18.50;99.90;;;;;;2085387;28;20642;-70
2023/09/12 01:02:42;;;;;;;27.15;24.27;;;18.50;99.90;;;;;;2089027;28;20078;-70
2023/09/12 01:03:43;;;;;;;27.27;23.67;;;18.50;99.90;;;;;;2092877;28;20036;-70
2023/09/12 01:04:44;;;;;;;29.17;24.88;;;18.40;99.90;;;;;;2096145;28;20044;-68
2023/09/12 01:05:46;;;;;;;27.60;24.67;;;18.40;99.90;;;;;;2077620;28;20385;-70
2023/09/12 01:06:48;;;;;;;27.75;24.58;;;18.40;99.90;;;;;;2071270;28;20030;-70
2023/09/12 01:07:49;;;;;;;28.88;25.77;;;18.40;99.90;;;;;;2085109;28;20025;-69
2023/09/12 01:08:49;;;;;;;28.60;25.52;;;18.40;99.90;;;;;;2077796;28;20508;-69
2023/09/12 01:09:50;;;;;;;27.63;24.63;;;18.40;99.90;;;;;;2084717;28;20021;-69
2023/09/12 01:10:54;;;;;;;27.77;24.77;;;18.40;99.90;;;;;;2088625;28;20487;-70
2023/09/12 01:11:56;;;;;;;29.40;24.42;;;18.40;99.90;;;;;;2084765;28;20029;-70
2023/09/12 01:12:56;;;;;;;28.48;25.38;;;18.30;99.90;;;;;;2093659;28;20271;-71
2023/09/12 01:13:57;;;;;;;27.83;24.63;;;18.30;99.90;;;;;;2092877;28;20029;-70
2023/09/12 01:14:58;;;;;;;28.23;25.13;;;18.30;99.90;;;;;;2075997;28;20047;-71
2023/09/12 01:15:58;;;;;;;28.48;25.48;;;18.30;99.90;;;;;;2086410;28;20161;-80
2023/09/12 01:17:01;;;;;;;27.90;24.90;;;18.30;99.90;;;;;;2085736;28;20504;-74
2023/09/12 01:18:02;;;;;;;29.75;24.73;;;18.30;99.90;;;;;;2086761;28;20041;-70
2023/09/12 01:19:05;;;;;;;28.55;25.50;;;18.30;99.90;;;;;;2074203;28;20041;-70
2023/09/12 01:20:11;;;;;;;27.25;24.33;;;18.20;99.90;;;;;;2074108;28;20041;-81
2023/09/12 01:21:41;;;;;;;27.90;24.90;;;18.20;99.90;;;;;;2091029;28;20021;-83
2023/09/12 01:23:06;;;;;;;28.42;23.77;;;18.20;99.90;;;;;;2089574;28;20028;-82
2023/09/12 01:24:07;;;;;;;29.75;25.35;;;18.20;99.90;;;;;;2085777;28;20032;-82
2023/09/12 01:25:47;;;;;;;27.17;24.33;;;18.20;99.90;;;;;;2090479;28;20049;-81
2023/09/12 01:27:17;;;;;;;27.75;24.30;;;18.10;99.90;;;;;;2088900;28;20396;-81
2023/09/12 01:28:18;;;;;;;27.13;23.95;;;18.10;99.90;;;;;;2098750;28;20100;-82
2023/09/12 01:29:21;;;;;;;27.80;24.48;;;18.10;99.90;;;;;;2094997;28;20020;-82
2023/09/12 01:30:22;;;;;;;27.92;24.77;;;18.10;99.90;;;;;;2088572;28;20035;-82
2023/09/12 01:31:25;;;;;;;29.00;25.23;;;18.00;99.90;;;;;;2084839;28;20124;-82
2023/09/12 01:32:26;;;;;;;28.30;25.33;;;18.00;99.90;;;;;;2092820;28;20043;-81
2023/09/12 01:33:27;;;;;;;30.02;24.75;;;18.00;99.90;;;;;;2090015;28;20021;-80
2023/09/12 01:34:28;;;;;;;27.48;24.58;;;18.00;99.90;;;;;;2093311;28;20033;-82
2023/09/12 01:35:28;;;;;;;28.85;25.45;;;18.00;99.90;;;;;;2087864;28;20045;-81
2023/09/12 01:36:29;;;;;;;28.63;25.38;;;18.00;99.90;;;;;;2086205;28;20029;-82
2023/09/12 01:37:31;;;;;;;28.65;24.55;;;17.90;99.90;;;;;;2093412;28;20403;-82
2023/09/12 01:38:31;;;;;;;28.75;25.65;;;17.90;99.90;;;;;;2094709;28;20111;-82
2023/09/12 01:39:32;;;;;;;28.58;25.58;;;17.90;99.90;;;;;;2088910;28;20017;-82
2023/09/12 01:40:54;;;;;;;29.50;26.20;;;17.90;99.90;;;;;;2089371;28;20613;-83
2023/09/12 01:41:56;;;;;;;27.65;24.63;;;17.90;99.90;;;;;;2089439;28;20036;-81
2023/09/12 01:42:57;;;;;;;29.67;26.08;;;17.80;99.90;;;;;;2095351;28;20039;-82
2023/09/12 01:44:00;;;;;;;28.58;25.48;;;17.80;99.90;;;;;;2089739;28;20031;-82
2023/09/12 01:45:02;;;;;;;29.25;26.05;;;17.80;99.90;;;;;;2090892;28;20036;-83
2023/09/12 01:46:03;;;;;;;28.35;25.35;;;17.80;99.90;;;;;;2094951;28;20033;-82
2023/09/12 01:47:05;;;;;;;29.77;26.00;;;17.80;99.90;;;;;;2092565;28;20086;-84
2023/09/12 01:48:07;;;;;;;29.35;26.13;;;17.80;99.90;;;;;;2084725;28;20036;-83
2023/09/12 01:49:09;;;;;;;29.40;25.63;;;17.80;99.90;;;;;;2087109;28;20077;-82
2023/09/12 01:50:13;;;;;;;28.88;25.88;;;17.80;99.90;;;;;;2080026;28;20029;-81
2023/09/12 01:51:15;;;;;;;30.27;25.20;;;17.80;99.90;;;;;;2073407;28;20022;-82
2023/09/12 01:52:16;;;;;;;29.27;26.08;;;17.70;99.90;;;;;;2088421;28;20044;-82
2023/09/12 01:53:18;;;;;;;30.33;27.02;;;17.70;99.90;;;;;;2088431;28;20067;-82
2023/09/12 01:54:20;;;;;;;30.83;26.17;;;17.70;99.90;;;;;;2088832;28;20082;-81
2023/09/12 01:55:22;;;;;;;30.35;26.33;;;17.70;99.90;;;;;;2094454;28;20064;-82
2023/09/12 01:56:23;;;;;;;30.75;26.50;;;17.70;99.90;;;;;;2092987;28;20364;-82
2023/09/12 01:57:25;;;;;;;31.80;26.73;;;17.70;99.90;;;;;;2085472;28;20032;-81
2023/09/12 01:58:26;;;;;;;31.27;27.40;;;17.70;99.90;;;;;;2083920;28;20499;-82
2023/09/12 01:59:29;;;;;;;29.67;26.58;;;17.70;99.90;;;;;;2081111;28;20032;-81
2023/09/12 02:00:30;;;;;;;30.10;26.88;;;17.70;99.90;;;;;;2082346;28;20116;-82
2023/09/12 02:01:30;;;;;;;28.88;25.83;;;17.70;99.90;;;;;;2080198;28;20067;-82
2023/09/12 02:02:33;;;;;;;30.30;26.63;;;17.70;99.90;;;;;;2093654;28;20028;-82
2023/09/12 02:03:33;;;;;;;32.42;28.05;;;17.70;99.90;;;;;;2090202;28;20496;-82
2023/09/12 02:04:34;;;;;;;32.05;27.40;;;17.70;99.90;;;;;;2085844;28;20170;-82
2023/09/12 02:05:37;;;;;;;29.98;26.60;;;17.70;99.90;;;;;;2081887;28;20037;-82
2023/09/12 02:06:38;;;;;;;30.35;26.70;;;17.60;99.90;;;;;;2093781;28;20305;-82
2023/09/12 02:07:39;;;;;;;32.22;27.38;;;17.70;99.90;;;;;;2104003;28;20059;-82
2023/09/12 02:08:40;;;;;;;29.95;26.60;;;17.70;99.90;;;;;;2102684;28;20024;-82
2023/09/12 02:09:41;;;;;;;31.80;27.13;;;17.60;99.90;;;;;;2091982;28;20021;-82
2023/09/12 02:10:41;;;;;;;29.25;26.25;;;17.60;99.90;;;;;;2099560;28;20028;-81
2023/09/12 02:11:42;;;;;;;30.98;26.83;;;17.60;99.90;;;;;;2096153;28;20028;-82
2023/09/12 02:12:42;;;;;;;30.75;27.42;;;17.70;99.90;;;;;;2088829;28;20044;-83
2023/09/12 02:13:43;;;;;;;32.45;27.20;;;17.60;99.90;;;;;;2097149;28;20070;-82
2023/09/12 02:14:43;;;;;;;30.20;27.02;;;17.60;99.90;;;;;;2091627;28;20090;-82
2023/09/12 02:15:44;;;;;;;30.08;26.83;;;17.60;99.90;;;;;;2087075;28;20052;-81
2023/09/12 02:16:45;;;;;;;30.23;27.02;;;17.60;99.90;;;;;;2086270;28;20013;-80
2023/09/12 02:17:45;;;;;;;31.90;27.05;;;17.60;99.90;;;;;;2093466;28;20185;-81
2023/09/12 02:18:46;;;;;;;29.20;26.10;;;17.60;99.90;;;;;;2083916;28;20059;-82
2023/09/12 02:19:47;;;;;;;29.88;26.55;;;17.60;99.90;;;;;;2095296;28;20525;-82
2023/09/12 02:20:49;;;;;;;30.25;27.05;;;17.60;99.90;;;;;;2099121;28;20107;-81
2023/09/12 02:21:49;;;;;;;29.70;26.55;;;17.60;99.90;;;;;;2092736;28;20047;-82
2023/09/12 02:22:50;;;;;;;30.40;27.13;;;17.60;99.90;;;;;;2095041;28;20314;-81
2023/09/12 02:23:52;;;;;;;32.20;28.10;;;17.60;99.90;;;;;;2105046;28;20456;-82
2023/09/12 02:24:53;;;;;;;29.70;26.60;;;17.60;99.90;;;;;;2088318;28;20029;-82
2023/09/12 02:25:55;;;;;;;30.70;27.27;;;17.60;99.90;;;;;;2092294;28;20083;-81
2023/09/12 02:26:56;;;;;;;31.27;27.52;;;17.60;99.90;;;;;;2079105;28;20125;-82
2023/09/12 02:27:57;;;;;;;30.38;27.15;;;17.60;99.90;;;;;;2078162;28;20115;-81
2023/09/12 02:28:57;;;;;;;31.25;27.10;;;17.50;99.90;;;;;;2095080;28;20106;-82
2023/09/12 02:29:58;;;;;;;31.55;28.08;;;17.60;99.90;;;;;;2090530;28;20139;-81
2023/09/12 02:30:58;;;;;;;32.20;27.15;;;17.60;99.90;;;;;;2085949;28;20024;-82
2023/09/12 02:31:59;;;;;;;30.13;26.98;;;17.50;99.90;;;;;;2083979;28;20183;-81
2023/09/12 02:33:00;;;;;;;31.17;27.25;;;17.50;99.90;;;;;;2079732;28;20092;-81
2023/09/12 02:34:00;;;;;;;31.73;28.27;;;17.60;99.90;;;;;;2088573;28;20476;-81
2023/09/12 02:35:02;;;;;;;31.30;27.90;;;17.50;99.90;;;;;;2091390;28;20088;-81
2023/09/12 02:36:03;;;;;;;32.17;28.15;;;17.50;99.90;;;;;;2088952;28;20086;-82
2023/09/12 02:37:03;;;;;;;31.90;27.70;;;17.50;99.90;;;;;;2088506;28;20086;-82
2023/09/12 02:38:04;;;;;;;30.15;26.95;;;17.50;99.90;;;;;;2082668;28;20033;-82
2023/09/12 02:39:04;;;;;;;31.85;28.30;;;17.50;99.90;;;;;;2077765;28;20017;-80
2023/09/12 02:40:06;;;;;;;31.13;27.70;;;17.40;99.90;;;;;;2083706;28;20300;-83
2023/09/12 02:41:07;;;;;;;32.85;28.75;;;17.40;99.90;;;;;;2093316;28;20099;-81
2023/09/12 02:42:07;;;;;;;32.63;28.42;;;17.40;99.90;;;;;;2091988;28;20962;-81
2023/09/12 02:43:08;;;;;;;32.33;28.20;;;17.50;99.90;;;;;;2085223;28;20414;-82
2023/09/12 02:44:09;;;;;;;32.70;28.52;;;17.40;99.90;;;;;;2079282;28;20022;-82
2023/09/12 02:45:10;;;;;;;32.55;28.30;;;17.40;99.90;;;;;;2078234;28;20487;-82
2023/09/12 02:46:10;;;;;;;31.52;27.75;;;17.40;99.90;;;;;;2074669;28;20124;-82
2023/09/12 02:47:11;;;;;;;31.98;27.67;;;17.40;99.90;;;;;;2089955;28;20494;-83
2023/09/12 02:48:12;;;;;;;31.83;27.55;;;17.40;99.90;;;;;;2090913;28;20052;-83
2023/09/12 02:49:13;;;;;;;31.67;27.45;;;17.40;99.90;;;;;;2092373;28;20110;-83
2023/09/12 02:50:13;;;;;;;32.45;27.63;;;17.40;99.90;;;;;;2090606;28;20044;-82
2023/09/12 02:51:14;;;;;;;30.90;27.48;;;17.40;99.90;;;;;;2095020;28;20034;-82
2023/09/12 02:52:15;;;;;;;29.98;26.77;;;17.40;99.90;;;;;;2092514;28;20033;-83
2023/09/12 02:53:15;;;;;;;29.85;26.75;;;17.40;99.90;;;;;;2086482;28;20028;-80
2023/09/12 02:54:16;;;;;;;31.13;27.52;;;17.30;99.90;;;;;;2080335;28;20033;-81
2023/09/12 02:55:16;;;;;;;33.13;27.08;;;17.40;99.90;;;;;;2094805;28;20029;-81
2023/09/12 02:56:17;;;;;;;30.90;27.52;;;17.40;99.90;;;;;;2097580;28;20038;-83
2023/09/12 02:57:18;;;;;;;31.27;27.88;;;17.40;99.90;;;;;;2085783;28;20061;-74
2023/09/12 02:58:19;;;;;;;30.92;27.63;;;17.40;99.90;;;;;;2082491;28;20025;-77
2023/09/12 02:59:19;;;;;;;30.77;27.40;;;17.40;99.90;;;;;;2083279;28;20493;-75
2023/09/12 03:00:21;;;;;;;30.00;26.02;;;17.40;99.90;;;;;;2094725;28;20043;-74
2023/09/12 03:01:22;;;;;;;29.50;26.38;;;17.30;99.90;;;;;;2090432;28;20032;-74
2023/09/12 03:02:23;;;;;;;30.77;27.45;;;17.30;99.90;;;;;;2090264;28;20023;-74
2023/09/12 03:03:24;;;;;;;32.33;27.55;;;17.40;99.90;;;;;;2091201;28;20138;-75
2023/09/12 03:04:28;;;;;;;30.10;26.58;;;17.30;99.90;;;;;;2094555;28;20059;-75
2023/09/12 03:05:29;;;;;;;33.05;27.35;;;17.40;99.90;;;;;;2090717;28;20052;-75
2023/09/12 03:06:30;;;;;;;31.08;27.42;;;17.30;99.90;;;;;;2093869;28;20040;-75
2023/09/12 03:07:31;;;;;;;30.17;25.95;;;17.30;99.90;;;;;;2090259;28;20119;-76
2023/09/12 03:08:31;;;;;;;31.63;27.50;;;17.30;99.90;;;;;;2088317;28;20373;-76
2023/09/12 03:09:32;;;;;;;30.02;26.70;;;17.30;99.90;;;;;;2093440;28;20205;-76
2023/09/12 03:10:33;;;;;;;30.45;27.05;;;17.30;99.90;;;;;;2088629;28;20514;-76
2023/09/12 03:11:33;;;;;;;33.72;27.33;;;17.30;99.90;;;;;;2091180;28;20089;-76
2023/09/12 03:12:37;;;;;;;29.83;26.27;;;17.30;99.90;;;;;;2086849;28;20111;-76
2023/09/12 03:13:40;;;;;;;33.38;27.00;;;17.30;99.90;;;;;;2083383;28;20433;-76
2023/09/12 03:14:40;;;;;;;29.88;26.67;;;17.30;99.90;;;;;;2092991;28;20450;-76
2023/09/12 03:15:41;;;;;;;30.30;27.05;;;17.20;99.90;;;;;;2088832;28;20028;-76
2023/09/12 03:16:41;;;;;;;30.30;26.38;;;17.30;99.90;;;;;;2085840;28;20381;-75
2023/09/12 03:17:42;;;;;;;30.33;26.45;;;17.30;99.90;;;;;;2092644;28;20500;-75
2023/09/12 03:18:43;;;;;;;30.85;26.50;;;17.30;99.90;;;;;;2093946;28;20498;-76
2023/09/12 03:19:43;;;;;;;29.58;26.20;;;17.30;99.90;;;;;;2084133;28;20603;-76
2023/09/12 03:20:44;;;;;;;29.88;26.63;;;17.30;99.90;;;;;;2088491;28;20028;-76
2023/09/12 03:21:45;;;;;;;43.28;35.67;;;17.20;99.90;;;;;;2082975;28;20473;-76
2023/09/12 03:22:46;;;;;;;36.13;29.45;;;17.20;99.90;;;;;;2085527;28;20112;-76
2023/09/12 03:23:46;;;;;;;31.45;27.55;;;17.20;99.90;;;;;;2089208;28;20522;-76
2023/09/12 03:24:47;;;;;;;29.50;26.30;;;17.20;99.90;;;;;;2091006;28;20032;-76
2023/09/12 03:25:48;;;;;;;30.25;25.42;;;17.20;99.90;;;;;;2094976;28;20016;-76
2023/09/12 03:26:50;;;;;;;29.48;26.27;;;17.30;99.90;;;;;;2093162;28;20048;-76
2023/09/12 03:27:51;;;;;;;27.88;24.95;;;17.20;99.90;;;;;;2082752;28;20503;-76
2023/09/12 03:28:52;;;;;;;28.65;25.63;;;17.20;99.90;;;;;;2079971;28;20021;-74
2023/09/12 03:29:52;;;;;;;30.40;26.42;;;17.20;99.90;;;;;;2091587;28;20129;-75
2023/09/12 03:31:04;;;;;;;30.17;26.45;;;17.20;99.90;;;;;;2089655;28;20120;-76
2023/09/12 03:32:05;;;;;;;29.30;26.20;;;17.20;99.90;;;;;;2083127;28;20090;-77
2023/09/12 03:33:06;;;;;;;30.58;27.27;;;17.20;99.90;;;;;;2090894;28;20024;-77
2023/09/12 03:34:06;;;;;;;31.35;27.38;;;17.20;99.90;;;;;;2092484;28;20043;-77
2023/09/12 03:35:08;;;;;;;30.40;27.10;;;17.10;99.90;;;;;;2075085;28;20485;-77
2023/09/12 03:36:09;;;;;;;30.58;26.58;;;17.10;99.90;;;;;;2084324;28;20029;-76
2023/09/12 03:37:09;;;;;;;29.77;26.58;;;17.10;99.90;;;;;;2083062;28;20210;-77
2023/09/12 03:38:10;;;;;;;31.65;27.73;;;17.10;99.90;;;;;;2083040;28;20027;-77
2023/09/12 03:39:13;;;;;;;31.95;27.52;;;17.10;99.90;;;;;;2092232;28;20020;-74
2023/09/12 03:40:14;;;;;;;31.15;27.85;;;17.10;99.90;;;;;;2089178;28;20028;-75
2023/09/12 03:41:14;;;;;;;30.70;26.77;;;17.10;99.90;;;;;;2082661;28;20116;-75
2023/09/12 03:42:15;;;;;;;32.92;28.60;;;17.10;99.90;;;;;;2091249;28;20074;-75
2023/09/12 03:43:15;;;;;;;30.05;26.98;;;17.10;99.90;;;;;;2081937;28;20483;-75
2023/09/12 03:44:16;;;;;;;30.80;27.45;;;17.00;99.90;;;;;;2082978;28;20157;-75
2023/09/12 03:45:17;;;;;;;30.13;26.88;;;17.00;99.90;;;;;;2082579;28;20037;-76
2023/09/12 03:46:17;;;;;;;33.15;27.80;;;17.00;99.90;;;;;;2086433;28;20027;-77
2023/09/12 03:47:18;;;;;;;30.95;27.65;;;17.00;99.90;;;;;;2094346;28;20051;-75
2023/09/12 03:48:18;;;;;;;31.67;28.27;;;17.00;99.90;;;;;;2083365;28;20051;-76
2023/09/12 03:49:19;;;;;;;31.40;27.83;;;17.00;99.90;;;;;;2091200;28;20025;-75
2023/09/12 03:50:20;;;;;;;30.08;26.75;;;16.90;99.90;;;;;;2090030;28;20136;-75
2023/09/12 03:51:20;;;;;;;30.50;27.15;;;16.90;99.90;;;;;;2083264;28;20032;-76
2023/09/12 03:52:21;;;;;;;34.40;28.02;;;16.90;99.90;;;;;;2094737;28;20052;-75
2023/09/12 03:53:21;;;;;;;30.10;26.70;;;16.90;99.90;;;;;;2090756;28;20016;-76
2023/09/12 03:54:22;;;;;;;31.05;27.67;;;16.90;99.90;;;;;;2091096;28;20566;-75
2023/09/12 03:55:23;;;;;;;31.55;27.95;;;16.90;99.90;;;;;;2086863;28;20035;-75
2023/09/12 03:56:24;;;;;;;30.85;27.52;;;16.90;99.90;;;;;;2086577;28;20029;-73
2023/09/12 03:57:25;;;;;;;30.55;27.30;;;16.90;99.90;;;;;;2087563;28;20065;-76
2023/09/12 03:58:26;;;;;;;30.75;27.33;;;16.90;99.90;;;;;;2072497;28;20041;-76
2023/09/12 03:59:26;;;;;;;30.80;27.35;;;16.90;99.90;;;;;;2085864;28;20021;-76
2023/09/12 04:00:27;;;;;;;34.30;28.85;;;16.90;99.90;;;;;;2089515;28;20518;-76
2023/09/12 04:01:28;;;;;;;32.25;27.23;;;16.90;99.90;;;;;;2093685;28;20666;-76
2023/09/12 04:02:29;;;;;;;30.50;26.20;;;16.90;99.90;;;;;;2084023;28;20029;-76
2023/09/12 04:03:30;;;;;;;32.67;27.75;;;16.90;99.90;;;;;;2081325;28;20099;-76
2023/09/12 04:04:30;;;;;;;30.75;27.45;;;16.90;99.90;;;;;;2074904;28;20029;-76
2023/09/12 04:05:31;;;;;;;49.00;41.20;;;16.90;99.90;;;;;;2076870;28;20032;-76
2023/09/12 04:06:32;;;;;;;35.78;31.92;;;16.90;99.90;;;;;;2081006;28;20025;-75
2023/09/12 04:07:32;;;;;;;35.03;30.60;;;16.90;99.90;;;;;;2088048;28;20033;-76
2023/09/12 04:08:33;;;;;;;33.10;29.38;;;16.90;99.90;;;;;;2083999;28;20032;-75
2023/09/12 04:09:35;;;;;;;33.95;29.23;;;16.90;99.90;;;;;;2084204;28;20634;-76
2023/09/12 04:10:35;;;;;;;31.25;27.92;;;17.00;99.90;;;;;;2089404;28;20032;-75
2023/09/12 04:11:36;;;;;;;30.92;27.10;;;16.90;99.90;;;;;;2093285;28;20031;-76
2023/09/12 04:12:36;;;;;;;30.02;26.83;;;16.90;99.90;;;;;;2093162;28;20074;-75
2023/09/12 04:13:37;;;;;;;30.80;26.67;;;16.90;99.90;;;;;;2089240;28;20029;-75
2023/09/12 04:14:37;;;;;;;29.52;26.38;;;16.90;99.90;;;;;;2092663;28;20288;-76
2023/09/12 04:15:38;;;;;;;32.40;26.13;;;16.90;99.90;;;;;;2092783;28;20509;-75
2023/09/12 04:16:39;;;;;;;29.08;25.98;;;16.90;99.90;;;;;;2092861;28;20560;-75
2023/09/12 04:17:40;;;;;;;29.67;26.15;;;16.90;99.90;;;;;;2092414;28;20021;-73
2023/09/12 04:18:40;;;;;;;30.73;26.52;;;16.90;99.90;;;;;;2078879;28;20029;-75
2023/09/12 04:19:41;;;;;;;29.33;26.10;;;16.90;99.90;;;;;;2072072;28;20026;-75
2023/09/12 04:20:41;;;;;;;31.60;26.55;;;16.90;99.90;;;;;;2078324;28;20072;-75
2023/09/12 04:21:42;;;;;;;29.55;26.13;;;16.90;99.90;;;;;;2085390;28;20592;-75
2023/09/12 04:22:43;;;;;;;33.15;28.67;;;16.90;99.90;;;;;;2084049;28;20029;-75
2023/09/12 04:23:43;;;;;;;30.50;27.25;;;16.80;99.90;;;;;;2090376;28;20067;-75
2023/09/12 04:24:44;;;;;;;32.72;26.80;;;16.80;99.90;;;;;;2088443;28;20410;-74
2023/09/12 04:25:46;;;;;;;31.95;26.60;;;16.80;99.90;;;;;;2085330;28;20040;-74
2023/09/12 04:26:46;;;;;;;28.30;25.30;;;16.80;99.90;;;;;;2078594;28;20040;-76
2023/09/12 04:27:47;;;;;;;28.95;25.38;;;16.80;99.90;;;;;;2083823;28;20023;-75
2023/09/12 04:28:48;;;;;;;29.05;26.00;;;16.80;99.90;;;;;;2090523;28;20052;-76
2023/09/12 04:29:48;;;;;;;31.73;25.40;;;16.80;99.90;;;;;;2075559;28;20040;-73
2023/09/12 04:30:49;;;;;;;30.33;25.90;;;16.80;99.90;;;;;;2085889;28;20032;-72
2023/09/12 04:31:52;;;;;;;30.35;26.50;;;16.80;99.90;;;;;;2086116;28;20025;-75
2023/09/12 04:32:53;;;;;;;31.20;25.70;;;16.80;99.90;;;;;;2075282;28;20030;-73
2023/09/12 04:33:54;;;;;;;29.45;25.70;;;16.80;99.90;;;;;;2082401;28;20373;-76
2023/09/12 04:34:55;;;;;;;29.45;26.25;;;16.80;99.90;;;;;;2070568;28;20025;-73
2023/09/12 04:36:00;;;;;;;27.90;25.05;;;16.80;99.90;;;;;;2070700;28;20507;-73
2023/09/12 04:37:02;;;;;;;30.00;25.23;;;16.80;99.90;;;;;;2080005;28;20052;-74
2023/09/12 04:38:03;;;;;;;27.88;24.88;;;16.80;99.90;;;;;;2089760;28;20028;-76
2023/09/12 04:39:05;;;;;;;28.13;25.13;;;16.80;99.90;;;;;;2087114;28;20471;-74
2023/09/12 04:40:07;;;;;;;31.08;26.08;;;16.80;99.90;;;;;;2086915;28;20029;-75
2023/09/12 04:41:08;;;;;;;29.27;25.35;;;16.80;99.90;;;;;;2084811;28;20032;-74
2023/09/12 04:42:09;;;;;;;28.73;25.65;;;16.80;99.90;;;;;;2086804;28;20033;-76
2023/09/12 04:43:09;;;;;;;28.27;25.25;;;16.80;99.90;;;;;;2089083;28;20032;-75
2023/09/12 04:44:10;;;;;;;31.80;25.77;;;16.80;99.90;;;;;;2092950;28;20024;-74
2023/09/12 04:45:11;;;;;;;29.17;25.13;;;16.80;99.90;;;;;;2080010;28;20036;-75
2023/09/12 04:46:12;;;;;;;29.83;25.52;;;16.80;99.90;;;;;;2086332;28;20427;-74
2023/09/12 04:47:13;;;;;;;30.27;26.42;;;16.80;99.90;;;;;;2095969;28;20120;-75
2023/09/12 04:48:13;;;;;;;28.50;25.38;;;16.80;99.90;;;;;;2087891;28;20035;-75
2023/09/12 04:49:14;;;;;;;28.10;25.00;;;16.80;99.90;;;;;;2077689;28;20128;-73
2023/09/12 04:50:15;;;;;;;32.28;26.50;;;16.80;99.90;;;;;;2076369;28;20649;-75
2023/09/12 04:51:16;;;;;;;27.75;24.45;;;16.80;99.90;;;;;;2091508;28;20032;-73
2023/09/12 04:52:16;;;;;;;29.17;25.23;;;16.90;99.90;;;;;;2085583;28;20037;-74
2023/09/12 04:53:17;;;;;;;30.65;25.70;;;16.90;99.90;;;;;;2086688;28;20033;-74
2023/09/12 04:54:17;;;;;;;29.38;25.17;;;16.90;99.90;;;;;;2086212;28;20565;-74
2023/09/12 04:55:18;;;;;;;29.58;25.25;;;16.90;99.90;;;;;;2081929;28;20447;-74
2023/09/12 04:56:19;;;;;;;27.95;24.52;;;16.90;99.90;;;;;;2089941;28;20056;-74
2023/09/12 04:57:20;;;;;;;28.08;24.90;;;16.90;99.90;;;;;;2081757;28;20152;-75
2023/09/12 04:58:20;;;;;;;30.85;26.02;;;16.90;99.90;;;;;;2087340;28;20025;-76
2023/09/12 04:59:21;;;;;;;29.35;25.13;;;16.90;99.90;;;;;;2093285;28;20507;-74
2023/09/12 05:00:21;;;;;;;28.30;25.20;;;16.90;99.90;;;;;;2092309;28;20094;-74
2023/09/12 05:01:22;;;;;;;30.20;25.30;;;16.90;99.90;;;;;;2085714;28;20541;-74
2023/09/12 05:02:22;;;;;;;27.23;24.33;;;17.00;99.90;;;;;;2083911;28;20034;-73
2023/09/12 05:03:23;;;;;;;27.35;24.45;;;17.00;99.90;;;;;;2090155;28;20564;-74
2023/09/12 05:04:24;;;;;;;28.25;24.40;;;17.00;99.90;;;;;;2092372;28;20024;-74
2023/09/12 05:05:24;;;;;;;28.40;25.33;;;17.00;99.90;;;;;;2093130;28;20032;-73
2023/09/12 05:06:25;;;;;;;27.90;24.42;;;17.00;99.90;;;;;;2095575;28;20023;-74
2023/09/12 05:07:26;;;;;;;29.25;24.75;;;17.00;99.90;;;;;;2076142;28;20576;-75
2023/09/12 05:08:26;;;;;;;29.80;26.10;;;17.10;99.90;;;;;;2086885;28;20124;-73
2023/09/12 05:09:27;;;;;;;28.27;24.63;;;17.10;99.90;;;;;;2091196;28;20161;-74
2023/09/12 05:10:28;;;;;;;27.33;24.42;;;17.10;99.90;;;;;;2084725;28;20299;-74
2023/09/12 05:11:28;;;;;;;29.00;22.92;;;17.10;99.90;;;;;;2084433;28;20075;-75
2023/09/12 05:12:29;;;;;;;33.53;25.13;;;17.20;99.90;;;;;;2087604;28;20035;-73